Suehiro Maru No.8 — JK5423 — position and weather

sailwx.info

Track history (hours):
 
Tides and Currents Weather Stations Pressure Air Temp Water Temp Dewpoint Dewpoint Depression Visibility Wind Speed Wind Dir Waves Ship Positions

Suehiro Maru No.8

Last reported at 2015-May-05 09:30 UTC. Time now 2015-May-06 19:32 UTC.
Position N 34°01' E 135°02'.

Length 88 m; draft 3.4 m.

Type: Cargo ship. MMSI: 431400446.

Date/timePositionNaut miles runAvg speedWind from/ knotsBaromVisibWave heightAir tempDewpointWater temp
2015-May-05 09:30N 34°01' E 135°02'1111.8
2015-May-05 08:33N 34°12' E 135°05'3 3.5
2015-May-05 07:33N 34°15' E 135°07'0 0.0
2015-May-05 06:33N 34°15' E 135°07'0 0.0
2015-May-05 05:34N 34°15' E 135°07'0 0.0
2015-May-05 04:33N 34°15' E 135°07'0 0.0
2015-May-05 03:33N 34°15' E 135°07'0 0.0
2015-May-05 02:33N 34°15' E 135°07'0 0.0
2015-May-05 01:25N 34°15' E 135°07'0 0.0
2015-May-05 00:33N 34°15' E 135°07'0 0.1
2015-May-04 23:33N 34°15' E 135°07'7 6.7
2015-May-04 22:33N 34°21' E 135°04'1312.8
2015-May-04 21:33N 34°34' E 135°03'1111.1
2015-May-04 20:32N 34°38' E 134°51'32 0.7
2015-May-02 23:29N 34°06' E 134°47'  
2015-Apr-30 11:14N 33°60' E 135°02'811.5
2015-Apr-30 10:34N 34°07' E 135°03'8 7.9
2015-Apr-30 09:33N 34°15' E 135°07'0 0.0
2015-Apr-30 08:33N 34°15' E 135°07'0 0.0
2015-Apr-30 07:34N 34°15' E 135°07'0 0.0
2015-Apr-30 06:33N 34°15' E 135°07'0 0.0
2015-Apr-30 05:33N 34°15' E 135°07'0 0.0
2015-Apr-30 04:33N 34°15' E 135°07'0 0.0
2015-Apr-30 03:33N 34°15' E 135°07'0 0.0
2015-Apr-30 02:33N 34°15' E 135°07'0 0.0
2015-Apr-30 01:33N 34°15' E 135°07'0 0.0
2015-Apr-30 00:33N 34°15' E 135°07'0 0.0
2015-Apr-29 23:33N 34°15' E 135°07'0 0.0
2015-Apr-29 22:33N 34°15' E 135°07'0 0.0
2015-Apr-29 21:34N 34°15' E 135°07'0 0.5
2015-Apr-29 20:33N 34°14' E 135°07'1 1.0
2015-Apr-29 19:33N 34°15' E 135°06'5 4.9
2015-Apr-29 18:33N 34°13' E 135°00'  
2015-Apr-27 08:08N 34°59' E 139°26'610.0
2015-Apr-27 07:33N 35°02' E 139°32'1010.4
2015-Apr-27 06:33N 35°08' E 139°42'1010.2
2015-Apr-27 05:34N 35°19' E 139°44'1010.0
2015-Apr-27 04:33N 35°28' E 139°48'9 9.4
2015-Apr-27 03:33N 35°37' E 139°48'0 0.1
2015-Apr-27 02:33N 35°37' E 139°49'0 0.0
2015-Apr-27 01:33N 35°37' E 139°49'0 0.0
2015-Apr-27 00:33N 35°37' E 139°49'0 0.0
2015-Apr-26 23:33N 35°37' E 139°49'0 0.0
2015-Apr-26 22:33N 35°37' E 139°49'0 0.0
2015-Apr-26 21:33N 35°37' E 139°48'4 3.7
2015-Apr-26 20:33N 35°35' E 139°52'0 0.0
2015-Apr-26 19:32N 35°35' E 139°52'0 0.0
2015-Apr-26 18:34N 35°35' E 139°52'0 0.0
2015-Apr-26 17:33N 35°35' E 139°52'0 0.0
2015-Apr-26 16:33N 35°35' E 139°52'0 0.0
2015-Apr-26 15:33N 35°35' E 139°52'0 0.0
2015-Apr-26 14:33N 35°35' E 139°52'0 0.4
2015-Apr-26 13:33N 35°35' E 139°52'1312.7
2015-Apr-26 12:34N 35°23' E 139°46'1211.8
2015-Apr-26 11:34N 35°12' E 139°47'1211.9
2015-Apr-26 10:33N 35°00' E 139°51'0 0.2
2015-Apr-26 09:32N 35°00' E 139°51'0 0.0
2015-Apr-26 08:32N 35°00' E 139°51'0 0.0
2015-Apr-26 07:29N 35°00' E 139°51'0 0.0
2015-Apr-26 06:32N 35°00' E 139°51'0 0.0
2015-Apr-26 05:29N 35°00' E 139°51'0 0.0
2015-Apr-26 04:29N 35°00' E 139°51'0 0.1
2015-Apr-26 03:33N 35°00' E 139°51'1111.2
2015-Apr-26 02:33N 34°56' E 139°38'  
Track history (hours):
 
Tides and Currents Weather Stations Pressure Air Temp Water Temp Dewpoint Dewpoint Depression Visibility Wind Speed Wind Dir Waves Ship Positions

Suehiro Maru No.8

Last reported at 2015-May-05 09:30 UTC. Time now 2015-May-06 19:32 UTC.
Position N 34°01' E 135°02'.

Length 88 m; draft 3.4 m.

Type: Cargo ship. MMSI: 431400446.

Date/timePositionNaut miles runAvg speedWind from/ knotsBaromVisibWave heightAir tempDewpointWater temp
2015-May-05 09:30N 34°01' E 135°02'1111.8
2015-May-05 08:33N 34°12' E 135°05'3 3.5
2015-May-05 07:33N 34°15' E 135°07'0 0.0
2015-May-05 06:33N 34°15' E 135°07'0 0.0
2015-May-05 05:34N 34°15' E 135°07'0 0.0
2015-May-05 04:33N 34°15' E 135°07'0 0.0
2015-May-05 03:33N 34°15' E 135°07'0 0.0
2015-May-05 02:33N 34°15' E 135°07'0 0.0
2015-May-05 01:25N 34°15' E 135°07'0 0.0
2015-May-05 00:33N 34°15' E 135°07'0 0.1
2015-May-04 23:33N 34°15' E 135°07'7 6.7
2015-May-04 22:33N 34°21' E 135°04'1312.8
2015-May-04 21:33N 34°34' E 135°03'1111.1
2015-May-04 20:32N 34°38' E 134°51'32 0.7
2015-May-02 23:29N 34°06' E 134°47'  
2015-Apr-30 11:14N 33°60' E 135°02'811.5
2015-Apr-30 10:34N 34°07' E 135°03'8 7.9
2015-Apr-30 09:33N 34°15' E 135°07'0 0.0
2015-Apr-30 08:33N 34°15' E 135°07'0 0.0
2015-Apr-30 07:34N 34°15' E 135°07'0 0.0
2015-Apr-30 06:33N 34°15' E 135°07'0 0.0
2015-Apr-30 05:33N 34°15' E 135°07'0 0.0
2015-Apr-30 04:33N 34°15' E 135°07'0 0.0
2015-Apr-30 03:33N 34°15' E 135°07'0 0.0
2015-Apr-30 02:33N 34°15' E 135°07'0 0.0
2015-Apr-30 01:33N 34°15' E 135°07'0 0.0
2015-Apr-30 00:33N 34°15' E 135°07'0 0.0
2015-Apr-29 23:33N 34°15' E 135°07'0 0.0
2015-Apr-29 22:33N 34°15' E 135°07'0 0.0
2015-Apr-29 21:34N 34°15' E 135°07'0 0.5
2015-Apr-29 20:33N 34°14' E 135°07'1 1.0
2015-Apr-29 19:33N 34°15' E 135°06'5 4.9
2015-Apr-29 18:33N 34°13' E 135°00'  
2015-Apr-27 08:08N 34°59' E 139°26'610.0
2015-Apr-27 07:33N 35°02' E 139°32'1010.4
2015-Apr-27 06:33N 35°08' E 139°42'1010.2
2015-Apr-27 05:34N 35°19' E 139°44'1010.0
2015-Apr-27 04:33N 35°28' E 139°48'9 9.4
2015-Apr-27 03:33N 35°37' E 139°48'0 0.1
2015-Apr-27 02:33N 35°37' E 139°49'0 0.0
2015-Apr-27 01:33N 35°37' E 139°49'0 0.0
2015-Apr-27 00:33N 35°37' E 139°49'0 0.0
2015-Apr-26 23:33N 35°37' E 139°49'0 0.0
2015-Apr-26 22:33N 35°37' E 139°49'0 0.0
2015-Apr-26 21:33N 35°37' E 139°48'4 3.7
2015-Apr-26 20:33N 35°35' E 139°52'0 0.0
2015-Apr-26 19:32N 35°35' E 139°52'0 0.0
2015-Apr-26 18:34N 35°35' E 139°52'0 0.0
2015-Apr-26 17:33N 35°35' E 139°52'0 0.0
2015-Apr-26 16:33N 35°35' E 139°52'0 0.0
2015-Apr-26 15:33N 35°35' E 139°52'0 0.0
2015-Apr-26 14:33N 35°35' E 139°52'0 0.4
2015-Apr-26 13:33N 35°35' E 139°52'1312.7
2015-Apr-26 12:34N 35°23' E 139°46'1211.8
2015-Apr-26 11:34N 35°12' E 139°47'1211.9
2015-Apr-26 10:33N 35°00' E 139°51'0 0.2
2015-Apr-26 09:32N 35°00' E 139°51'0 0.0
2015-Apr-26 08:32N 35°00' E 139°51'0 0.0
2015-Apr-26 07:29N 35°00' E 139°51'0 0.0
2015-Apr-26 06:32N 35°00' E 139°51'0 0.0
2015-Apr-26 05:29N 35°00' E 139°51'0 0.0
2015-Apr-26 04:29N 35°00' E 139°51'0 0.1
2015-Apr-26 03:33N 35°00' E 139°51'1111.2
2015-Apr-26 02:33N 34°56' E 139°38'  

Dump ship's entire track history